Time;durP1;ratioP1;P1;durP2;ratioP2;P2;SDS_P1;SDS_P2;PMS_P1;PMS_P2;Temp;Humidity;BMP_temperature;BMP_pressure;BME280_temperature;BME280_humidity;BME280_pressure;Samples;Min_cycle;Max_cycle;Signal;HPM_P1;HPM_P2
2023/07/24 00:01:41;;;;;;;7.15;5.15;;;;;;;;;;21009080;28;20044;-68
2023/07/24 00:11:43;;;;;;;8.07;6.28;;;;;;;;;;21009481;28;20048;-67
2023/07/24 00:21:44;;;;;;;9.35;5.78;;;;;;;;;;21008888;28;20040;-68
2023/07/24 00:31:45;;;;;;;10.85;6.63;;;;;;;;;;21006615;28;20041;-68
2023/07/24 00:41:46;;;;;;;9.05;6.50;;;;;;;;;;21006620;28;20056;-66
2023/07/24 00:51:47;;;;;;;13.07;6.10;;;;;;;;;;21006393;28;20440;-67
2023/07/24 01:01:48;;;;;;;9.80;5.70;;;;;;;;;;21004367;28;20048;-68
2023/07/24 01:11:52;;;;;;;6.95;4.85;;;;;;;;;;21003704;28;20047;-68
2023/07/24 01:22:12;;;;;;;10.50;5.57;;;;;;;;;;21004027;28;20390;-67
2023/07/24 01:32:13;;;;;;;9.82;5.30;;;;;;;;;;21003426;28;20053;-68
2023/07/24 01:42:14;;;;;;;6.93;5.03;;;;;;;;;;21001463;28;20063;-68
2023/07/24 01:52:16;;;;;;;8.13;5.03;;;;;;;;;;21001501;28;20045;-68
2023/07/24 02:02:17;;;;;;;7.57;4.82;;;;;;;;;;20999608;28;20123;-68
2023/07/24 02:12:18;;;;;;;10.65;5.38;;;;;;;;;;20999867;28;20040;-68
2023/07/24 02:22:19;;;;;;;8.07;4.80;;;;;;;;;;20999427;28;20089;-68
2023/07/24 02:32:23;;;;;;;6.45;4.72;;;;;;;;;;20998648;28;20047;-68
2023/07/24 02:42:24;;;;;;;7.90;5.18;;;;;;;;;;20996595;28;20147;-67
2023/07/24 02:52:26;;;;;;;8.48;4.80;;;;;;;;;;20995582;28;20153;-67
2023/07/24 03:02:27;;;;;;;8.98;6.18;;;;;;;;;;20997319;28;20050;-68
2023/07/24 03:12:28;;;;;;;6.88;4.95;;;;;;;;;;20996769;28;20090;-68
2023/07/24 03:22:29;;;;;;;13.60;7.00;;;;;;;;;;20996736;28;20474;-68
2023/07/24 03:32:30;;;;;;;10.98;7.55;;;;;;;;;;20994689;28;20087;-68
2023/07/24 03:42:31;;;;;;;8.88;5.28;;;;;;;;;;20994854;28;20044;-68
2023/07/24 03:52:33;;;;;;;6.85;4.60;;;;;;;;;;20995108;28;20181;-67
2023/07/24 04:02:34;;;;;;;6.75;5.00;;;;;;;;;;20997634;28;20054;-68
2023/07/24 04:12:35;;;;;;;6.85;5.22;;;;;;;;;;21009737;28;20495;-68
2023/07/24 04:22:36;;;;;;;6.35;4.25;;;;;;;;;;21007569;28;20041;-69
2023/07/24 04:32:37;;;;;;;8.80;4.63;;;;;;;;;;21006800;28;20051;-68
2023/07/24 04:42:38;;;;;;;8.48;4.95;;;;;;;;;;21005691;28;20052;-68
2023/07/24 04:52:39;;;;;;;9.73;5.72;;;;;;;;;;21006572;28;20052;-67
2023/07/24 05:02:40;;;;;;;11.18;5.70;;;;;;;;;;21004671;28;20045;-68
2023/07/24 05:12:42;;;;;;;7.55;5.13;;;;;;;;;;21004458;28;20037;-68
2023/07/24 05:22:43;;;;;;;7.25;5.00;;;;;;;;;;21004369;28;20048;-67
2023/07/24 05:32:44;;;;;;;8.73;5.45;;;;;;;;;;21003313;28;20127;-67
2023/07/24 05:42:47;;;;;;;9.93;6.20;;;;;;;;;;21001126;28;20088;-68
2023/07/24 05:52:48;;;;;;;9.02;5.93;;;;;;;;;;21001457;28;20052;-68
2023/07/24 06:02:49;;;;;;;10.27;4.90;;;;;;;;;;21000814;28;20133;-68
2023/07/24 06:12:50;;;;;;;9.43;4.80;;;;;;;;;;21000129;28;20490;-67
2023/07/24 06:22:51;;;;;;;11.52;5.13;;;;;;;;;;20997728;28;20045;-68
2023/07/24 06:32:52;;;;;;;10.25;5.35;;;;;;;;;;20998372;28;20051;-68
2023/07/24 06:42:54;;;;;;;10.20;5.90;;;;;;;;;;20996537;28;20048;-67
2023/07/24 06:52:55;;;;;;;11.25;5.10;;;;;;;;;;20995497;28;20132;-68
2023/07/24 07:02:56;;;;;;;7.25;4.70;;;;;;;;;;20996941;28;20037;-68
2023/07/24 07:12:57;;;;;;;5.95;4.63;;;;;;;;;;20996140;28;20113;-68
2023/07/24 07:22:58;;;;;;;13.43;5.20;;;;;;;;;;20996023;28;20052;-68
2023/07/24 07:32:59;;;;;;;8.77;4.40;;;;;;;;;;20995674;28;20474;-68
2023/07/24 07:43:00;;;;;;;7.05;4.35;;;;;;;;;;21006686;28;20059;-68
2023/07/24 07:53:01;;;;;;;4.70;3.80;;;;;;;;;;21009729;28;20048;-69
2023/07/24 08:03:03;;;;;;;6.55;3.88;;;;;;;;;;21010344;28;20042;-69
2023/07/24 08:13:04;;;;;;;8.80;4.07;;;;;;;;;;21009421;28;20559;-69
2023/07/24 08:23:05;;;;;;;9.48;5.00;;;;;;;;;;21008754;28;20072;-69
2023/07/24 08:33:06;;;;;;;7.63;4.53;;;;;;;;;;21007908;28;20048;-70
2023/07/24 08:43:07;;;;;;;7.65;5.53;;;;;;;;;;21005552;28;20055;-69
2023/07/24 08:53:09;;;;;;;9.00;4.75;;;;;;;;;;21005420;28;20106;-69
2023/07/24 09:03:11;;;;;;;9.75;5.65;;;;;;;;;;21004764;28;20040;-69
2023/07/24 09:13:12;;;;;;;7.88;5.60;;;;;;;;;;21002731;28;20086;-69
2023/07/24 09:23:14;;;;;;;8.93;4.63;;;;;;;;;;21002504;28;20044;-69
2023/07/24 09:33:15;;;;;;;9.32;5.32;;;;;;;;;;21002963;28;20041;-69
2023/07/24 09:43:21;;;;;;;6.90;4.82;;;;;;;;;;21001559;28;20097;-68
2023/07/24 09:53:24;;;;;;;6.40;4.50;;;;;;;;;;21001294;28;20051;-69
2023/07/24 10:03:26;;;;;;;8.95;4.35;;;;;;;;;;20998218;28;20037;-69
2023/07/24 10:13:28;;;;;;;6.28;3.92;;;;;;;;;;20997273;28;20045;-68
2023/07/24 10:23:29;;;;;;;13.57;4.22;;;;;;;;;;20998452;28;20158;-68
2023/07/24 10:33:31;;;;;;;8.45;4.97;;;;;;;;;;20997105;28;20033;-66
2023/07/24 10:43:41;;;;;;;8.00;4.60;;;;;;;;;;20996637;28;20142;-69
2023/07/24 10:53:44;;;;;;;7.10;4.20;;;;;;;;;;20997454;28;20040;-68
2023/07/24 11:03:46;;;;;;;7.05;4.88;;;;;;;;;;20996800;28;20040;-68
2023/07/24 11:13:47;;;;;;;15.70;4.72;;;;;;;;;;20995257;28;20052;-69
2023/07/24 11:23:49;;;;;;;6.72;4.50;;;;;;;;;;20994495;28;20052;-68
2023/07/24 11:33:52;;;;;;;6.35;4.75;;;;;;;;;;20994094;28;20044;-69
2023/07/24 11:43:53;;;;;;;6.32;4.97;;;;;;;;;;20993483;28;20096;-68
2023/07/24 11:54:04;;;;;;;7.18;5.20;;;;;;;;;;20993562;28;20095;-67
2023/07/24 12:04:05;;;;;;;8.07;4.80;;;;;;;;;;20994578;28;20045;-69
2023/07/24 12:14:07;;;;;;;6.88;4.95;;;;;;;;;;20993631;28;20106;-69
2023/07/24 12:24:08;;;;;;;8.43;5.05;;;;;;;;;;20996665;28;20045;-67
2023/07/24 12:34:09;;;;;;;6.90;4.80;;;;;;;;;;21006523;28;20044;-69
2023/07/24 12:44:10;;;;;;;9.20;4.72;;;;;;;;;;21005683;28;20052;-68
2023/07/24 12:54:11;;;;;;;7.10;4.80;;;;;;;;;;21004830;28;20062;-68
2023/07/24 13:04:12;;;;;;;9.05;5.05;;;;;;;;;;21004797;28;20067;-68
2023/07/24 13:14:14;;;;;;;6.13;4.15;;;;;;;;;;21003425;28;20131;-69
2023/07/24 13:24:15;;;;;;;7.63;5.15;;;;;;;;;;21004094;28;20056;-68
2023/07/24 13:34:19;;;;;;;7.07;4.90;;;;;;;;;;21002699;28;20049;-68
2023/07/24 13:44:20;;;;;;;8.88;5.47;;;;;;;;;;21001298;28;20082;-68
2023/07/24 13:54:21;;;;;;;5.70;4.32;;;;;;;;;;20999396;28;20049;-70
2023/07/24 14:04:22;;;;;;;6.63;4.18;;;;;;;;;;20999739;28;20055;-70
2023/07/24 14:14:24;;;;;;;7.32;4.82;;;;;;;;;;20999174;28;20044;-68
2023/07/24 14:24:27;;;;;;;6.20;4.72;;;;;;;;;;20997711;28;20075;-68
2023/07/24 14:34:28;;;;;;;6.32;4.90;;;;;;;;;;20998086;28;20551;-70
2023/07/24 14:44:29;;;;;;;7.18;5.03;;;;;;;;;;20996375;28;20512;-68
2023/07/24 14:54:30;;;;;;;5.75;4.18;;;;;;;;;;20993303;28;20056;-68
2023/07/24 15:04:31;;;;;;;5.65;4.25;;;;;;;;;;20996461;28;20607;-69
2023/07/24 15:14:32;;;;;;;7.72;5.38;;;;;;;;;;20996060;28;20041;-69
2023/07/24 15:24:33;;;;;;;5.90;4.82;;;;;;;;;;20995641;28;20044;-67
2023/07/24 15:34:34;;;;;;;4.43;2.50;;;;;;;;;;20995140;28;20505;-69
2023/07/24 15:44:35;;;;;;;4.07;2.45;;;;;;;;;;20994427;28;20052;-68
2023/07/24 15:54:36;;;;;;;3.88;3.13;;;;;;;;;;20994672;28;20060;-69
2023/07/24 16:04:38;;;;;;;5.63;2.60;;;;;;;;;;21006930;28;20056;-69
2023/07/24 16:14:39;;;;;;;7.63;2.70;;;;;;;;;;21009262;28;20044;-69
2023/07/24 16:24:40;;;;;;;4.10;2.38;;;;;;;;;;21008084;28;20033;-69
2023/07/24 16:34:41;;;;;;;7.53;2.60;;;;;;;;;;21007991;28;20040;-68
2023/07/24 16:44:42;;;;;;;3.28;2.22;;;;;;;;;;21006337;28;20505;-69
2023/07/24 16:54:45;;;;;;;4.43;1.88;;;;;;;;;;21004811;28;20041;-69
2023/07/24 17:04:46;;;;;;;3.30;2.45;;;;;;;;;;21005763;28;20052;-69
2023/07/24 17:14:47;;;;;;;3.03;2.47;;;;;;;;;;21003206;28;20440;-69
2023/07/24 17:24:48;;;;;;;3.40;2.28;;;;;;;;;;21003806;28;20044;-68
2023/07/24 17:34:49;;;;;;;3.60;2.33;;;;;;;;;;21001552;28;20055;-68
2023/07/24 17:44:51;;;;;;;2.95;1.75;;;;;;;;;;21002684;28;20108;-69
2023/07/24 17:54:52;;;;;;;3.35;1.75;;;;;;;;;;21001296;28;20044;-69
2023/07/24 18:04:53;;;;;;;2.90;2.10;;;;;;;;;;21000040;28;20493;-68
2023/07/24 18:14:54;;;;;;;3.75;2.10;;;;;;;;;;20998545;28;20106;-68
2023/07/24 18:24:55;;;;;;;2.58;2.00;;;;;;;;;;20997350;28;20048;-68
2023/07/24 18:34:56;;;;;;;3.17;2.15;;;;;;;;;;20998005;28;20043;-68
2023/07/24 18:44:57;;;;;;;4.47;2.13;;;;;;;;;;20996655;28;20048;-67
2023/07/24 18:54:59;;;;;;;3.85;2.15;;;;;;;;;;20997464;28;20044;-68
2023/07/24 19:05:00;;;;;;;12.27;4.53;;;;;;;;;;20996564;28;20048;-67
2023/07/24 19:15:01;;;;;;;4.03;2.80;;;;;;;;;;20996066;28;20490;-68
2023/07/24 19:25:02;;;;;;;4.32;3.17;;;;;;;;;;20994266;28;20087;-69
2023/07/24 19:35:04;;;;;;;5.13;3.13;;;;;;;;;;21000067;28;20041;-68
2023/07/24 19:45:05;;;;;;;6.25;2.92;;;;;;;;;;21010634;28;20052;-68
2023/07/24 19:55:06;;;;;;;4.00;2.17;;;;;;;;;;21010663;28;20040;-67
2023/07/24 20:05:08;;;;;;;5.10;1.98;;;;;;;;;;21010249;28;20044;-67
2023/07/24 20:15:09;;;;;;;4.28;1.90;;;;;;;;;;21008607;28;20128;-69
2023/07/24 20:25:10;;;;;;;2.15;1.60;;;;;;;;;;21009011;28;20036;-69
2023/07/24 20:35:11;;;;;;;3.38;1.90;;;;;;;;;;21008352;28;20506;-68
2023/07/24 20:45:12;;;;;;;3.47;2.15;;;;;;;;;;21006703;28;20063;-68
2023/07/24 20:55:16;;;;;;;1.85;1.38;;;;;;;;;;21006778;28;20158;-68
2023/07/24 21:05:17;;;;;;;3.70;2.67;;;;;;;;;;21006022;28;20437;-67
2023/07/24 21:15:18;;;;;;;5.18;2.25;;;;;;;;;;21005160;28;20045;-68
2023/07/24 21:25:19;;;;;;;2.83;2.08;;;;;;;;;;21004238;28;20577;-68
2023/07/24 21:35:20;;;;;;;1.88;1.50;;;;;;;;;;21003460;28;20593;-68
2023/07/24 21:45:21;;;;;;;3.22;1.45;;;;;;;;;;21001491;28;20061;-68
2023/07/24 21:55:22;;;;;;;4.38;2.45;;;;;;;;;;21001327;28;20048;-67
2023/07/24 22:05:23;;;;;;;2.80;1.70;;;;;;;;;;21000723;28;20078;-68
2023/07/24 22:15:25;;;;;;;3.40;1.60;;;;;;;;;;21000594;28;20469;-67
2023/07/24 22:25:26;;;;;;;2.88;1.40;;;;;;;;;;20999794;28;20051;-68
2023/07/24 22:35:27;;;;;;;3.10;1.55;;;;;;;;;;20999031;28;20050;-67
2023/07/24 22:45:28;;;;;;;4.57;2.75;;;;;;;;;;20997579;28;20064;-68
2023/07/24 22:55:29;;;;;;;3.17;1.85;;;;;;;;;;20998113;28;20082;-66
2023/07/24 23:05:30;;;;;;;6.20;2.97;;;;;;;;;;20997496;28;20056;-68
2023/07/24 23:15:32;;;;;;;2.67;1.60;;;;;;;;;;20995205;28;20040;-68
2023/07/24 23:25:34;;;;;;;4.25;1.80;;;;;;;;;;20996726;28;20051;-68
2023/07/24 23:35:36;;;;;;;2.42;1.45;;;;;;;;;;20996636;28;20448;-68
2023/07/24 23:45:37;;;;;;;4.03;1.75;;;;;;;;;;20996029;28;20048;-68
2023/07/24 23:55:38;;;;;;;5.97;1.67;;;;;;;;;;20994618;28;20051;-68
